Time;durP1;ratioP1;P1;durP2;ratioP2;P2;SDS_P1;SDS_P2;PMS_P1;PMS_P2;Temp;Humidity;BMP_temperature;BMP_pressure;BME280_temperature;BME280_humidity;BME280_pressure;Samples;Min_cycle;Max_cycle;Signal;HPM_P1;HPM_P2
2023/02/04 00:01:51;;;;;;;14.38;8.90;;;9.50;99.90;;;;;;5055972;28;20037;-48
2023/02/04 00:04:17;;;;;;;14.05;9.35;;;9.50;99.90;;;;;;5056131;28;20480;-54
2023/02/04 00:06:44;;;;;;;11.88;7.97;;;9.50;99.90;;;;;;5055898;28;20048;-51
2023/02/04 00:09:11;;;;;;;15.60;8.52;;;9.50;99.90;;;;;;5056245;28;20052;-50
2023/02/04 00:11:38;;;;;;;15.02;10.82;;;9.50;99.90;;;;;;5055905;28;20049;-48
2023/02/04 00:14:04;;;;;;;15.40;9.68;;;9.50;99.90;;;;;;5055660;28;20103;-55
2023/02/04 00:16:31;;;;;;;15.57;9.13;;;9.50;99.90;;;;;;5055773;28;20045;-53
2023/02/04 00:18:58;;;;;;;13.82;8.00;;;9.60;99.90;;;;;;5055844;28;20060;-50
2023/02/04 00:21:25;;;;;;;12.93;8.48;;;9.60;99.90;;;;;;5055386;28;20053;-49
2023/02/04 00:23:51;;;;;;;15.82;8.35;;;9.60;99.90;;;;;;5055744;28;20048;-52
2023/02/04 00:26:18;;;;;;;13.95;8.23;;;9.60;99.90;;;;;;5055656;28;20535;-52
2023/02/04 00:28:45;;;;;;;15.30;7.95;;;9.60;99.90;;;;;;5055851;28;20167;-51
2023/02/04 00:31:12;;;;;;;15.40;8.30;;;9.60;99.90;;;;;;5055478;28;20044;-53
2023/02/04 00:33:41;;;;;;;11.15;7.32;;;9.60;99.90;;;;;;5054291;28;20051;-53
2023/02/04 00:36:08;;;;;;;14.80;7.63;;;9.60;99.90;;;;;;5055475;28;20491;-55
2023/02/04 00:38:35;;;;;;;11.48;7.35;;;9.60;99.90;;;;;;5055610;28;20065;-54
2023/02/04 00:41:02;;;;;;;13.82;7.55;;;9.60;99.90;;;;;;5055128;28;20490;-52
2023/02/04 00:43:28;;;;;;;13.23;7.50;;;9.60;99.90;;;;;;5055561;28;20045;-50
2023/02/04 00:45:56;;;;;;;14.60;7.72;;;9.60;99.90;;;;;;5055278;28;20094;-52
2023/02/04 00:48:23;;;;;;;14.85;7.40;;;9.60;99.90;;;;;;5055336;28;20044;-51
2023/02/04 00:50:52;;;;;;;15.50;7.10;;;9.60;99.90;;;;;;5053866;28;20060;-52
2023/02/04 00:53:19;;;;;;;15.63;7.20;;;9.60;99.90;;;;;;5055010;28;20590;-52
2023/02/04 00:55:46;;;;;;;15.98;6.90;;;9.60;99.90;;;;;;5055607;28;20041;-52
2023/02/04 00:58:13;;;;;;;13.95;7.40;;;9.60;99.90;;;;;;5054709;28;20120;-54
2023/02/04 01:00:40;;;;;;;12.93;7.07;;;9.50;99.90;;;;;;5055303;28;20060;-52
2023/02/04 01:03:08;;;;;;;15.15;6.60;;;9.50;99.90;;;;;;5055161;28;20040;-53
2023/02/04 01:05:35;;;;;;;14.60;7.38;;;9.40;99.90;;;;;;5054511;28;20069;-48
2023/02/04 01:08:03;;;;;;;11.57;7.18;;;9.30;99.90;;;;;;5054620;28;20523;-53
2023/02/04 01:10:30;;;;;;;14.43;7.30;;;9.30;99.90;;;;;;5053521;28;20110;-53
2023/02/04 01:12:57;;;;;;;11.38;6.60;;;9.20;99.90;;;;;;5036627;28;20116;-54
2023/02/04 01:15:25;;;;;;;11.27;6.53;;;9.20;99.90;;;;;;5054433;28;20599;-51
2023/02/04 01:17:52;;;;;;;13.23;6.68;;;9.20;99.90;;;;;;5054665;28;20056;-53
2023/02/04 01:20:19;;;;;;;10.63;6.30;;;9.10;99.90;;;;;;5054568;28;20049;-50
2023/02/04 01:22:47;;;;;;;10.82;6.45;;;9.10;99.90;;;;;;5053171;28;20045;-53
2023/02/04 01:25:14;;;;;;;13.07;6.40;;;9.10;99.90;;;;;;5054311;28;20041;-56
2023/02/04 01:27:41;;;;;;;13.75;6.85;;;9.00;99.90;;;;;;5054478;28;20068;-55
2023/02/04 01:30:08;;;;;;;10.45;5.88;;;9.00;99.90;;;;;;5036607;28;20051;-53
2023/02/04 01:32:34;;;;;;;16.40;7.03;;;9.00;99.90;;;;;;5052976;28;20048;-52
2023/02/04 01:35:01;;;;;;;11.82;6.60;;;9.00;99.90;;;;;;5053939;28;20040;-54
2023/02/04 01:37:28;;;;;;;15.32;6.72;;;9.00;99.90;;;;;;5053978;28;20048;-54
2023/02/04 01:39:55;;;;;;;13.13;6.05;;;9.00;99.90;;;;;;5054413;28;20087;-49
2023/02/04 01:42:21;;;;;;;12.57;6.60;;;8.90;99.90;;;;;;5053910;28;20041;-54
2023/02/04 01:44:48;;;;;;;14.50;6.97;;;8.90;99.90;;;;;;5054408;28;20072;-52
2023/02/04 01:47:15;;;;;;;10.57;6.07;;;8.90;99.90;;;;;;5052797;28;20048;-55
2023/02/04 01:49:42;;;;;;;15.93;7.20;;;8.80;99.90;;;;;;5054078;28;20099;-55
2023/02/04 01:52:08;;;;;;;15.00;7.43;;;8.80;99.90;;;;;;5054145;28;20045;-52
2023/02/04 01:54:35;;;;;;;16.10;7.00;;;8.80;99.90;;;;;;5052499;28;20037;-51
2023/02/04 01:57:02;;;;;;;16.95;7.32;;;8.80;99.90;;;;;;5052886;28;20049;-53
2023/02/04 01:59:28;;;;;;;12.32;6.57;;;8.70;99.90;;;;;;5052768;28;20044;-51
2023/02/04 02:01:58;;;;;;;12.82;6.57;;;8.70;99.90;;;;;;5054120;28;20044;-52
2023/02/04 02:04:25;;;;;;;9.90;6.38;;;8.70;99.90;;;;;;5052684;28;20057;-53
2023/02/04 02:06:52;;;;;;;14.77;7.10;;;8.70;99.90;;;;;;5053776;28;20041;-52
2023/02/04 02:09:19;;;;;;;12.43;7.00;;;8.80;99.90;;;;;;5053736;28;20423;-52
2023/02/04 02:11:46;;;;;;;14.93;6.75;;;8.80;99.90;;;;;;5053829;28;20111;-51
2023/02/04 02:14:12;;;;;;;13.85;6.47;;;8.80;99.90;;;;;;5054040;28;20029;-49
2023/02/04 02:16:39;;;;;;;12.57;6.72;;;8.90;99.90;;;;;;5052335;28;20118;-48
2023/02/04 02:19:06;;;;;;;12.68;6.25;;;8.90;99.90;;;;;;5053522;28;20037;-49
2023/02/04 02:21:32;;;;;;;10.70;6.93;;;8.90;99.90;;;;;;5052374;28;20047;-50
2023/02/04 02:24:02;;;;;;;14.65;6.43;;;9.00;99.90;;;;;;5053783;28;20546;-52
2023/02/04 02:26:29;;;;;;;12.32;6.32;;;9.00;99.90;;;;;;5052264;28;20049;-51
2023/02/04 02:28:56;;;;;;;13.27;6.82;;;9.00;99.90;;;;;;5053642;28;20048;-51
2023/02/04 02:31:22;;;;;;;11.90;6.05;;;9.10;99.90;;;;;;5053564;28;20171;-54
2023/02/04 02:33:49;;;;;;;12.73;6.47;;;9.10;99.90;;;;;;5052574;28;20049;-51
2023/02/04 02:36:16;;;;;;;11.95;6.10;;;9.10;99.90;;;;;;5053378;28;20037;-51
2023/02/04 02:38:43;;;;;;;10.52;6.82;;;9.10;99.90;;;;;;5053312;28;20098;-54
2023/02/04 02:41:10;;;;;;;15.68;7.60;;;9.10;99.90;;;;;;5052233;28;20094;-53
2023/02/04 02:43:36;;;;;;;12.95;6.68;;;9.20;99.90;;;;;;5053644;28;20041;-54
2023/02/04 02:46:03;;;;;;;11.77;6.40;;;9.20;99.90;;;;;;5053655;28;20045;-52
2023/02/04 02:48:31;;;;;;;14.20;5.93;;;9.10;99.90;;;;;;5053383;28;20103;-48
2023/02/04 02:50:57;;;;;;;11.57;6.63;;;9.20;99.90;;;;;;5053516;28;20408;-55
2023/02/04 02:53:24;;;;;;;11.65;6.63;;;9.20;99.90;;;;;;5053327;28;20049;-53
2023/02/04 02:55:51;;;;;;;10.55;6.90;;;9.20;99.90;;;;;;5052162;28;20049;-51
2023/02/04 02:58:21;;;;;;;14.30;7.40;;;9.20;99.90;;;;;;5053680;28;20489;-53
2023/02/04 03:00:48;;;;;;;11.15;6.90;;;9.20;99.90;;;;;;5051953;28;20049;-52
2023/02/04 03:03:15;;;;;;;13.32;7.40;;;9.20;99.90;;;;;;5052228;28;20045;-54
2023/02/04 03:05:42;;;;;;;15.93;7.05;;;9.20;99.90;;;;;;5052125;28;20057;-54
2023/02/04 03:08:11;;;;;;;13.48;6.93;;;9.30;99.90;;;;;;5052137;28;20045;-54
2023/02/04 03:10:37;;;;;;;14.95;7.03;;;9.30;99.90;;;;;;5053500;28;20080;-49
2023/02/04 03:13:04;;;;;;;13.10;6.50;;;9.30;99.90;;;;;;5051982;28;20099;-52
2023/02/04 03:15:31;;;;;;;12.75;7.22;;;9.30;99.90;;;;;;5051803;28;20515;-53
2023/02/04 03:17:58;;;;;;;15.20;7.45;;;9.30;99.90;;;;;;5051623;28;20549;-50
2023/02/04 03:20:25;;;;;;;14.13;6.95;;;9.30;99.90;;;;;;5052727;28;20049;-51
2023/02/04 03:22:51;;;;;;;14.05;6.75;;;9.30;99.90;;;;;;5052931;28;20041;-53
2023/02/04 03:25:19;;;;;;;13.35;7.68;;;9.30;99.90;;;;;;5051456;28;20045;-52
2023/02/04 03:27:49;;;;;;;13.52;7.53;;;9.30;99.90;;;;;;5035793;28;20099;-54
2023/02/04 03:30:16;;;;;;;11.63;7.50;;;9.30;99.90;;;;;;5055530;28;20128;-53
2023/02/04 03:32:42;;;;;;;12.52;7.57;;;9.30;99.90;;;;;;5056549;28;20127;-52
2023/02/04 03:35:09;;;;;;;12.38;7.40;;;9.30;99.90;;;;;;5056562;28;20037;-52
2023/02/04 03:37:36;;;;;;;12.07;7.60;;;9.30;99.90;;;;;;5056614;28;20041;-51
2023/02/04 03:40:03;;;;;;;13.60;7.15;;;9.30;99.90;;;;;;5056485;28;20063;-56
2023/02/04 03:42:30;;;;;;;14.10;8.55;;;9.30;99.90;;;;;;5056495;28;20033;-53
2023/02/04 03:44:56;;;;;;;10.70;7.50;;;9.30;99.90;;;;;;5056511;28;20553;-52
2023/02/04 03:47:23;;;;;;;12.15;7.28;;;9.30;99.90;;;;;;5056366;28;20095;-54
2023/02/04 03:49:50;;;;;;;11.48;7.97;;;9.30;99.90;;;;;;5056345;28;20045;-54
2023/02/04 03:52:16;;;;;;;13.35;8.00;;;9.30;99.90;;;;;;5056658;28;20045;-52
2023/02/04 03:54:43;;;;;;;11.77;8.27;;;9.30;99.90;;;;;;5056328;28;20103;-54
2023/02/04 03:57:10;;;;;;;14.00;7.82;;;9.30;99.90;;;;;;5056326;28;20487;-54
2023/02/04 03:59:37;;;;;;;13.10;8.13;;;9.30;99.90;;;;;;5056421;28;20094;-52
2023/02/04 04:02:03;;;;;;;12.25;8.02;;;9.30;99.90;;;;;;5056390;28;20135;-53
2023/02/04 04:04:30;;;;;;;13.82;8.38;;;9.30;99.90;;;;;;5056244;28;20498;-53
2023/02/04 04:06:57;;;;;;;12.32;7.53;;;9.30;99.90;;;;;;5056072;28;20045;-55
2023/02/04 04:09:23;;;;;;;14.00;8.70;;;9.30;99.90;;;;;;5056151;28;20045;-55
2023/02/04 04:11:50;;;;;;;13.90;8.77;;;9.30;99.90;;;;;;5056002;28;20443;-53
2023/02/04 04:14:17;;;;;;;12.00;8.30;;;9.30;99.90;;;;;;5055770;28;20475;-50
2023/02/04 04:16:44;;;;;;;13.35;8.30;;;9.30;99.90;;;;;;5055781;28;20045;-54
2023/02/04 04:19:10;;;;;;;15.50;8.73;;;9.30;99.90;;;;;;5056908;28;20044;-49
2023/02/04 04:21:37;;;;;;;12.30;8.40;;;9.30;99.90;;;;;;5056290;28;20472;-52
2023/02/04 04:24:04;;;;;;;14.85;9.13;;;9.30;99.90;;;;;;5055516;28;20037;-52
2023/02/04 04:26:30;;;;;;;14.38;8.52;;;9.30;99.90;;;;;;5055423;28;20476;-52
2023/02/04 04:28:57;;;;;;;15.48;9.43;;;9.30;99.90;;;;;;5054646;28;20063;-54
2023/02/04 04:31:24;;;;;;;14.30;9.02;;;9.30;99.90;;;;;;5055781;28;20049;-54
2023/02/04 04:33:51;;;;;;;14.50;9.50;;;9.30;99.90;;;;;;5055613;28;20045;-52
2023/02/04 04:36:18;;;;;;;13.55;8.80;;;9.30;99.90;;;;;;5055372;28;20112;-50
2023/02/04 04:38:45;;;;;;;13.68;9.15;;;9.30;99.90;;;;;;5055480;28;20388;-54
2023/02/04 04:41:11;;;;;;;11.80;8.75;;;9.30;99.90;;;;;;5054794;28;20550;-52
2023/02/04 04:43:38;;;;;;;14.35;9.50;;;9.30;99.90;;;;;;5055445;28;20045;-50
2023/02/04 04:46:05;;;;;;;14.80;9.75;;;9.30;99.90;;;;;;5055263;28;20041;-51
2023/02/04 04:48:32;;;;;;;15.45;9.93;;;9.30;99.90;;;;;;5055439;28;20378;-53
2023/02/04 04:50:58;;;;;;;14.73;10.05;;;9.30;99.90;;;;;;5055153;28;20128;-50
2023/02/04 04:53:25;;;;;;;15.15;9.90;;;9.30;99.90;;;;;;5055513;28;20683;-49
2023/02/04 04:55:52;;;;;;;14.02;9.82;;;9.30;99.90;;;;;;5054593;28;20499;-52
2023/02/04 04:58:19;;;;;;;14.50;10.23;;;9.30;99.90;;;;;;5055003;28;20041;-52
2023/02/04 05:00:46;;;;;;;15.35;9.93;;;9.30;99.90;;;;;;5055057;28;20045;-51
2023/02/04 05:03:12;;;;;;;16.13;10.60;;;9.30;99.90;;;;;;5054915;28;20045;-48
2023/02/04 05:05:40;;;;;;;13.75;10.48;;;9.30;99.90;;;;;;5054911;28;20102;-51
2023/02/04 05:08:11;;;;;;;15.07;10.05;;;9.30;99.90;;;;;;5053510;28;20419;-47
2023/02/04 05:10:38;;;;;;;11.75;8.88;;;9.30;99.90;;;;;;5054904;28;20040;-52
2023/02/04 05:13:05;;;;;;;15.95;9.57;;;9.30;99.90;;;;;;5054916;28;20045;-53
2023/02/04 05:15:31;;;;;;;15.75;10.00;;;9.30;99.90;;;;;;5053600;28;20087;-49
2023/02/04 05:17:58;;;;;;;15.25;9.35;;;9.30;99.90;;;;;;5054815;28;20041;-54
2023/02/04 05:20:25;;;;;;;16.08;10.20;;;9.30;99.90;;;;;;5054502;28;20053;-52
2023/02/04 05:22:52;;;;;;;12.88;9.85;;;9.40;99.90;;;;;;5054428;28;20536;-54
2023/02/04 05:25:18;;;;;;;13.07;9.40;;;9.30;99.90;;;;;;5054098;28;20483;-55
2023/02/04 05:27:45;;;;;;;14.32;9.25;;;9.30;99.90;;;;;;5054316;28;20092;-50
2023/02/04 05:30:12;;;;;;;13.68;9.30;;;9.30;99.90;;;;;;5054303;28;20480;-56
2023/02/04 05:32:39;;;;;;;13.07;9.38;;;9.30;99.90;;;;;;5054538;28;20048;-53
2023/02/04 05:35:05;;;;;;;14.73;9.88;;;9.30;99.90;;;;;;5053893;28;20041;-55
2023/02/04 05:37:32;;;;;;;12.85;8.48;;;9.30;99.90;;;;;;5053840;28;20128;-47
2023/02/04 05:39:59;;;;;;;12.13;8.95;;;9.30;99.90;;;;;;5054033;28;20092;-53
2023/02/04 05:42:26;;;;;;;14.38;8.80;;;9.30;99.90;;;;;;5053883;28;20041;-53
2023/02/04 05:44:52;;;;;;;10.63;8.35;;;9.30;99.90;;;;;;5054010;28;20098;-53
2023/02/04 05:47:19;;;;;;;11.32;7.85;;;9.30;99.90;;;;;;5054056;28;20040;-55
2023/02/04 05:49:46;;;;;;;11.98;8.00;;;9.30;99.90;;;;;;5054086;28;20048;-52
2023/02/04 05:52:13;;;;;;;12.23;8.23;;;9.30;99.90;;;;;;5051549;28;20477;-53
2023/02/04 05:54:40;;;;;;;12.55;7.40;;;9.30;99.90;;;;;;5053861;28;20488;-50
2023/02/04 05:57:06;;;;;;;10.85;8.80;;;9.30;99.90;;;;;;5054079;28;20087;-51
2023/02/04 05:59:33;;;;;;;12.52;7.70;;;9.30;99.90;;;;;;5053885;28;20041;-56
2023/02/04 06:02:00;;;;;;;10.75;7.65;;;9.30;99.90;;;;;;5053045;28;20044;-53
2023/02/04 06:04:27;;;;;;;12.50;7.55;;;9.30;99.90;;;;;;5053947;28;20049;-51
2023/02/04 06:06:54;;;;;;;12.60;8.15;;;9.30;99.90;;;;;;5053668;28;20098;-54
2023/02/04 06:09:21;;;;;;;13.18;7.20;;;9.30;99.90;;;;;;5053735;28;20518;-51
2023/02/04 06:11:47;;;;;;;10.50;7.45;;;9.30;99.90;;;;;;5053425;28;20491;-54
2023/02/04 06:14:14;;;;;;;11.40;7.88;;;9.30;99.90;;;;;;5053694;28;20057;-52
2023/02/04 06:16:41;;;;;;;11.20;7.85;;;9.30;99.90;;;;;;5053713;28;20045;-54
2023/02/04 06:19:08;;;;;;;13.27;8.20;;;9.30;99.90;;;;;;5053653;28;20059;-54
2023/02/04 06:21:34;;;;;;;11.75;7.60;;;9.30;99.90;;;;;;5053502;28;20107;-54
2023/02/04 06:24:01;;;;;;;11.70;7.50;;;9.30;99.90;;;;;;5053311;28;20041;-46
2023/02/04 06:26:30;;;;;;;13.40;7.82;;;9.30;99.90;;;;;;5053248;28;20045;-50
2023/02/04 06:28:56;;;;;;;14.00;7.90;;;9.30;99.90;;;;;;5053695;28;20045;-46
2023/02/04 06:31:23;;;;;;;12.52;8.13;;;9.30;99.90;;;;;;5053513;28;20048;-54
2023/02/04 06:33:50;;;;;;;12.60;7.68;;;9.30;99.90;;;;;;5053675;28;20441;-53
2023/02/04 06:36:17;;;;;;;11.98;7.55;;;9.30;99.90;;;;;;5053411;28;20040;-53
2023/02/04 06:38:43;;;;;;;9.45;6.88;;;9.30;99.90;;;;;;5053489;28;20079;-51
2023/02/04 06:41:10;;;;;;;10.48;6.57;;;9.30;99.90;;;;;;5053359;28;20091;-53
2023/02/04 06:43:37;;;;;;;10.73;7.28;;;9.20;99.90;;;;;;5053502;28;20554;-52
2023/02/04 06:46:03;;;;;;;11.38;7.55;;;9.30;99.90;;;;;;5053304;28;20045;-52
2023/02/04 06:48:30;;;;;;;10.90;7.50;;;9.20;99.90;;;;;;5053783;28;20065;-51
2023/02/04 06:50:57;;;;;;;10.63;6.68;;;9.20;99.90;;;;;;5053010;28;20044;-47
2023/02/04 06:53:24;;;;;;;8.55;7.15;;;9.20;99.90;;;;;;5053262;28;20452;-52
2023/02/04 06:55:51;;;;;;;8.95;6.80;;;9.20;99.90;;;;;;5052935;28;20080;-51
2023/02/04 06:58:18;;;;;;;12.65;8.25;;;9.20;99.90;;;;;;5052282;28;20473;-52
2023/02/04 07:00:45;;;;;;;10.63;7.30;;;9.20;99.90;;;;;;5053357;28;20041;-52
2023/02/04 07:03:11;;;;;;;9.30;7.20;;;9.20;99.90;;;;;;5053671;28;20388;-53
2023/02/04 07:05:38;;;;;;;12.00;7.38;;;9.20;99.90;;;;;;5056594;28;20053;-54
2023/02/04 07:08:05;;;;;;;10.07;6.78;;;9.20;99.90;;;;;;5056967;28;20041;-50
2023/02/04 07:10:32;;;;;;;9.65;7.18;;;9.20;99.90;;;;;;5056828;28;20045;-49
2023/02/04 07:12:59;;;;;;;9.63;7.05;;;9.20;99.90;;;;;;5057206;28;20072;-48
2023/02/04 07:15:26;;;;;;;10.50;7.88;;;9.20;99.90;;;;;;5057219;28;20519;-50
2023/02/04 07:17:53;;;;;;;8.50;7.05;;;9.20;99.90;;;;;;5056916;28;20044;-52
2023/02/04 07:20:20;;;;;;;8.80;7.20;;;9.20;99.90;;;;;;5056681;28;20483;-54
2023/02/04 07:22:46;;;;;;;8.48;7.25;;;9.20;99.90;;;;;;5056836;28;20049;-51
2023/02/04 07:25:16;;;;;;;9.10;7.78;;;9.20;99.90;;;;;;5056822;28;20056;-48
2023/02/04 07:27:43;;;;;;;9.07;6.90;;;9.20;99.90;;;;;;5056754;28;20037;-49
2023/02/04 07:30:10;;;;;;;10.18;7.88;;;9.20;99.90;;;;;;5056674;28;20037;-47
2023/02/04 07:32:37;;;;;;;9.45;7.68;;;9.20;99.90;;;;;;5056636;28;20056;-47
2023/02/04 07:35:04;;;;;;;9.38;7.35;;;9.20;99.90;;;;;;5056496;28;20041;-46
2023/02/04 07:37:30;;;;;;;9.75;7.53;;;9.20;99.90;;;;;;5056765;28;20131;-47
2023/02/04 07:39:57;;;;;;;7.97;6.85;;;9.20;99.90;;;;;;5056556;28;20037;-47
2023/02/04 07:42:24;;;;;;;9.35;7.25;;;9.20;99.90;;;;;;5056403;28;20045;-47
2023/02/04 07:44:58;;;;;;;9.77;7.22;;;9.20;99.90;;;;;;5055158;28;20056;-48
2023/02/04 07:47:25;;;;;;;9.02;7.60;;;9.20;99.90;;;;;;5056300;28;20045;-49
2023/02/04 07:49:55;;;;;;;10.85;7.75;;;9.20;99.90;;;;;;5056446;28;20106;-49
2023/02/04 07:52:22;;;;;;;9.23;7.78;;;9.20;99.90;;;;;;5056537;28;20045;-49
2023/02/04 07:54:50;;;;;;;11.02;7.82;;;9.20;99.90;;;;;;5056219;28;20048;-50
2023/02/04 07:57:16;;;;;;;9.98;7.53;;;9.20;99.90;;;;;;5055999;28;20229;-47
2023/02/04 07:59:45;;;;;;;9.82;7.53;;;9.20;99.90;;;;;;5055841;28;20112;-53
2023/02/04 08:02:12;;;;;;;9.57;7.57;;;9.20;99.90;;;;;;5056023;28;20068;-51
2023/02/04 08:04:39;;;;;;;9.10;7.63;;;9.20;99.90;;;;;;5056106;28;20045;-54
2023/02/04 08:07:06;;;;;;;10.02;7.47;;;9.20;99.90;;;;;;5056242;28;20037;-49
2023/02/04 08:09:33;;;;;;;9.35;8.10;;;9.20;99.90;;;;;;5056119;28;20480;-51
2023/02/04 08:11:59;;;;;;;8.90;8.00;;;9.20;99.90;;;;;;5056237;28;20396;-51
2023/02/04 08:14:26;;;;;;;8.65;7.75;;;9.20;99.90;;;;;;5055195;28;20443;-50
2023/02/04 08:16:53;;;;;;;8.55;7.65;;;9.30;99.90;;;;;;5055193;28;20065;-54
2023/02/04 08:19:20;;;;;;;9.88;7.93;;;9.30;99.90;;;;;;5054526;28;20384;-49
2023/02/04 08:21:47;;;;;;;9.07;7.65;;;9.30;99.90;;;;;;5056014;28;20045;-51
2023/02/04 08:24:14;;;;;;;10.05;8.00;;;9.30;99.90;;;;;;5055924;28;20056;-51
2023/02/04 08:26:40;;;;;;;9.13;7.78;;;9.30;99.90;;;;;;5055598;28;20060;-52
2023/02/04 08:29:07;;;;;;;9.80;8.30;;;9.30;99.90;;;;;;5055648;28;20041;-53
2023/02/04 08:31:35;;;;;;;9.82;8.40;;;9.40;99.90;;;;;;5055488;28;20037;-52
2023/02/04 08:34:02;;;;;;;8.88;7.45;;;9.30;99.90;;;;;;5055531;28;20048;-52
2023/02/04 08:36:29;;;;;;;8.45;7.25;;;9.40;99.90;;;;;;5055416;28;20055;-51
2023/02/04 08:38:55;;;;;;;9.43;7.63;;;9.40;99.90;;;;;;5055583;28;20045;-52
2023/02/04 08:41:22;;;;;;;8.60;7.10;;;9.40;99.90;;;;;;5055545;28;20060;-53
2023/02/04 08:43:49;;;;;;;11.57;8.65;;;9.40;99.90;;;;;;5055338;28;20071;-52
2023/02/04 08:46:16;;;;;;;9.23;7.60;;;9.40;99.90;;;;;;5055063;28;20044;-52
2023/02/04 08:48:42;;;;;;;9.82;7.88;;;9.40;99.90;;;;;;5054714;28;20052;-53
2023/02/04 08:51:09;;;;;;;8.05;7.22;;;9.40;99.90;;;;;;5054935;28;20049;-51
2023/02/04 08:53:36;;;;;;;8.45;7.57;;;9.40;99.90;;;;;;5055155;28;20102;-54
2023/02/04 08:56:03;;;;;;;9.20;7.43;;;9.40;99.90;;;;;;5054813;28;20384;-54
2023/02/04 08:58:30;;;;;;;8.55;6.75;;;9.50;99.90;;;;;;5054713;28;20427;-53
2023/02/04 09:00:56;;;;;;;7.65;6.82;;;9.50;99.90;;;;;;5054968;28;20037;-52
2023/02/04 09:03:23;;;;;;;9.23;6.82;;;9.50;99.90;;;;;;5054831;28;20118;-51
2023/02/04 09:05:50;;;;;;;8.05;6.75;;;9.50;99.90;;;;;;5054352;28;20425;-54
2023/02/04 09:08:17;;;;;;;8.75;6.35;;;9.60;99.90;;;;;;5054957;28;20091;-52
2023/02/04 09:10:43;;;;;;;9.20;7.10;;;9.60;99.90;;;;;;5054561;28;20048;-53
2023/02/04 09:13:10;;;;;;;8.43;7.03;;;9.60;99.90;;;;;;5054470;28;20047;-54
2023/02/04 09:15:37;;;;;;;7.30;6.43;;;9.60;99.90;;;;;;5054304;28;20095;-53
2023/02/04 09:18:13;;;;;;;7.40;6.50;;;9.60;99.90;;;;;;5054550;28;20041;-53
2023/02/04 09:20:40;;;;;;;7.22;6.40;;;9.60;99.90;;;;;;5054174;28;20069;-52
2023/02/04 09:23:09;;;;;;;8.38;6.65;;;9.60;99.90;;;;;;5053037;28;20045;-53
2023/02/04 09:25:35;;;;;;;9.77;6.70;;;9.60;99.90;;;;;;5051415;28;20132;-53
2023/02/04 09:28:02;;;;;;;10.88;6.90;;;9.50;99.90;;;;;;5053069;28;20049;-53
2023/02/04 09:30:29;;;;;;;10.38;6.72;;;9.60;99.90;;;;;;5053536;28;20454;-51
2023/02/04 09:32:56;;;;;;;7.85;7.05;;;9.60;99.90;;;;;;5053682;28;20419;-53
2023/02/04 09:35:23;;;;;;;8.85;6.30;;;9.70;99.90;;;;;;5053042;28;20103;-54
2023/02/04 09:37:50;;;;;;;9.13;6.60;;;9.60;99.90;;;;;;5053888;28;20464;-51
2023/02/04 09:40:16;;;;;;;6.65;5.80;;;9.60;99.90;;;;;;5053771;28;20037;-50
2023/02/04 09:42:43;;;;;;;7.47;6.55;;;9.60;99.90;;;;;;5053725;28;20071;-54
2023/02/04 09:45:10;;;;;;;8.02;6.53;;;9.60;99.90;;;;;;5054018;28;20119;-51
2023/02/04 09:47:37;;;;;;;8.57;6.65;;;9.70;99.90;;;;;;5043791;28;20436;-52
2023/02/04 09:50:04;;;;;;;8.90;6.85;;;9.70;99.90;;;;;;5049209;28;20664;-51
2023/02/04 09:52:30;;;;;;;8.27;5.72;;;9.80;99.90;;;;;;5055049;28;20471;-48
2023/02/04 09:54:57;;;;;;;6.20;5.45;;;9.80;99.90;;;;;;5054000;28;20468;-51
2023/02/04 09:57:24;;;;;;;9.25;5.75;;;9.80;99.90;;;;;;5053258;28;20528;-51
2023/02/04 09:59:50;;;;;;;7.85;6.03;;;9.80;99.90;;;;;;5053594;28;20045;-49
2023/02/04 10:02:17;;;;;;;6.72;5.43;;;9.80;99.90;;;;;;5053886;28;20041;-54
2023/02/04 10:04:44;;;;;;;6.75;5.40;;;9.80;99.90;;;;;;5053659;28;20041;-50
2023/02/04 10:07:11;;;;;;;6.30;5.68;;;9.90;99.90;;;;;;5053523;28;20499;-51
2023/02/04 10:09:37;;;;;;;8.93;5.35;;;9.90;99.90;;;;;;5053428;28;20102;-48
2023/02/04 10:12:04;;;;;;;8.25;5.20;;;9.90;99.90;;;;;;5053833;28;20518;-50
2023/02/04 10:14:31;;;;;;;7.90;5.13;;;9.90;99.90;;;;;;5053836;28;20041;-52
2023/02/04 10:16:58;;;;;;;7.10;5.00;;;9.90;99.90;;;;;;5053290;28;20033;-51
2023/02/04 10:19:25;;;;;;;7.25;4.45;;;9.90;99.90;;;;;;5053299;28;20041;-53
2023/02/04 10:21:52;;;;;;;5.45;4.38;;;10.00;99.90;;;;;;5053649;28;20098;-51
2023/02/04 10:24:18;;;;;;;7.05;4.63;;;10.00;99.90;;;;;;5053673;28;20036;-49
2023/02/04 10:26:45;;;;;;;10.43;4.85;;;10.00;99.90;;;;;;5053252;28;20514;-53
2023/02/04 10:29:12;;;;;;;4.55;3.70;;;10.00;99.90;;;;;;5053242;28;20049;-53
2023/02/04 10:31:39;;;;;;;6.20;3.65;;;10.00;99.90;;;;;;5053669;28;20049;-51
2023/02/04 10:34:05;;;;;;;13.45;3.80;;;10.00;99.90;;;;;;5053322;28;20041;-53
2023/02/04 10:36:32;;;;;;;8.15;6.10;;;10.00;99.90;;;;;;5053281;28;20033;-54
2023/02/04 10:38:59;;;;;;;9.13;5.63;;;10.10;99.90;;;;;;5057440;28;20045;-51
2023/02/04 10:41:26;;;;;;;4.68;3.72;;;10.10;99.90;;;;;;5061394;28;20033;-55
2023/02/04 10:43:53;;;;;;;5.90;4.07;;;10.10;99.90;;;;;;5059339;28;20063;-50
2023/02/04 10:46:20;;;;;;;6.22;3.70;;;10.20;99.90;;;;;;5059954;28;20045;-54
2023/02/04 10:48:46;;;;;;;6.00;3.28;;;10.20;99.90;;;;;;5058972;28;20051;-53
2023/02/04 10:51:13;;;;;;;4.57;3.20;;;10.20;99.90;;;;;;5059769;28;20045;-53
2023/02/04 10:56:25;;;;;;;7.07;3.22;;;10.20;99.90;;;;;;5059396;28;20037;-51
2023/02/04 10:58:52;;;;;;;6.63;3.53;;;10.30;99.90;;;;;;5059379;28;20072;-52
2023/02/04 11:01:18;;;;;;;4.32;2.45;;;10.30;99.90;;;;;;5059760;28;20041;-53
2023/02/04 11:03:45;;;;;;;4.22;2.45;;;10.30;99.90;;;;;;5059141;28;20033;-53
2023/02/04 11:06:14;;;;;;;5.45;2.00;;;10.30;99.90;;;;;;5060152;28;20074;-53
2023/02/04 11:08:41;;;;;;;3.90;1.45;;;10.40;99.90;;;;;;5058452;28;20057;-52
2023/02/04 11:11:08;;;;;;;2.60;1.83;;;10.40;99.90;;;;;;5060030;28;20434;-50
2023/02/04 11:13:35;;;;;;;4.80;2.03;;;10.40;99.90;;;;;;5058826;28;20045;-50
2023/02/04 11:16:01;;;;;;;6.28;1.75;;;10.40;99.90;;;;;;5058303;28;20086;-56
2023/02/04 11:18:28;;;;;;;2.60;1.63;;;10.40;99.90;;;;;;5058309;28;20116;-52
2023/02/04 11:20:55;;;;;;;4.80;1.73;;;10.40;99.90;;;;;;5057948;28;20091;-52
2023/02/04 11:23:22;;;;;;;3.28;1.80;;;10.40;99.90;;;;;;5056951;28;20110;-52
2023/02/04 11:25:49;;;;;;;2.85;1.80;;;10.40;99.90;;;;;;5058358;28;20041;-51
2023/02/04 11:28:15;;;;;;;3.40;1.50;;;10.40;99.90;;;;;;5057704;28;20045;-51
2023/02/04 11:30:42;;;;;;;8.05;1.90;;;10.40;99.90;;;;;;5059715;28;20033;-54
2023/02/04 11:33:09;;;;;;;5.40;1.92;;;10.50;99.90;;;;;;5059581;28;20091;-53
2023/02/04 11:35:36;;;;;;;5.13;1.88;;;10.50;99.90;;;;;;5059456;28;20396;-52
2023/02/04 11:38:03;;;;;;;8.35;3.20;;;10.60;99.90;;;;;;5059270;28;20044;-56
2023/02/04 11:40:29;;;;;;;11.40;9.60;;;10.60;99.90;;;;;;5059276;28;20464;-53
2023/02/04 11:42:56;;;;;;;6.28;2.28;;;10.60;99.90;;;;;;5059855;28;20037;-56
2023/02/04 11:45:23;;;;;;;5.30;1.98;;;10.60;99.90;;;;;;5059464;28;20435;-53
2023/02/04 11:47:50;;;;;;;20.70;13.68;;;10.70;99.90;;;;;;5059217;28;20484;-54
2023/02/04 11:50:16;;;;;;;8.93;2.95;;;10.70;99.90;;;;;;5057754;28;20045;-56
2023/02/04 11:52:43;;;;;;;4.90;1.73;;;10.70;99.90;;;;;;5056370;28;20438;-56
2023/02/04 11:55:10;;;;;;;373.30;22.92;;;10.80;99.90;;;;;;5055937;28;20037;-56
2023/02/04 11:57:36;;;;;;;22.33;5.88;;;10.90;99.90;;;;;;5056084;28;20464;-55
2023/02/04 12:00:03;;;;;;;8.23;2.00;;;10.90;99.90;;;;;;5055943;28;20041;-53
2023/02/04 12:02:30;;;;;;;3.95;1.33;;;10.90;99.90;;;;;;5056474;28;20044;-54
2023/02/04 12:04:57;;;;;;;5.28;1.50;;;11.00;99.90;;;;;;5055999;28;20045;-53
2023/02/04 12:07:24;;;;;;;6.55;1.85;;;11.00;99.90;;;;;;5055706;28;20051;-49
2023/02/04 12:09:50;;;;;;;8.00;1.95;;;11.00;99.90;;;;;;5055945;28;20044;-50
2023/02/04 12:12:17;;;;;;;10.25;3.75;;;11.10;99.90;;;;;;5056038;28;20096;-49
2023/02/04 12:14:44;;;;;;;7.88;2.53;;;11.10;99.90;;;;;;5055880;28;20144;-52
2023/02/04 12:17:10;;;;;;;7.20;1.80;;;11.10;99.90;;;;;;5055603;28;20384;-55
2023/02/04 12:19:37;;;;;;;8.52;3.47;;;11.10;99.90;;;;;;5055871;28;20131;-51
2023/02/04 12:22:04;;;;;;;5.63;2.15;;;11.10;99.90;;;;;;5055773;28;20041;-46
2023/02/04 12:24:31;;;;;;;18.25;7.80;;;11.00;99.90;;;;;;5054757;28;20092;-48
2023/02/04 12:26:57;;;;;;;43.40;38.45;;;11.00;99.90;;;;;;5055611;28;20069;-51
2023/02/04 12:29:24;;;;;;;22.80;10.65;;;11.00;99.90;;;;;;5055759;28;20045;-51
2023/02/04 12:31:51;;;;;;;6.78;3.78;;;11.10;99.90;;;;;;5055701;28;20045;-47
2023/02/04 12:34:18;;;;;;;8.00;2.60;;;11.00;99.90;;;;;;5055421;28;20040;-51
2023/02/04 12:36:45;;;;;;;11.77;2.80;;;11.00;99.90;;;;;;5055099;28;20049;-48
2023/02/04 12:39:12;;;;;;;7.03;2.75;;;10.90;99.90;;;;;;5055328;28;20094;-49
2023/02/04 12:41:38;;;;;;;6.35;2.47;;;10.90;99.90;;;;;;5055299;28;20068;-48
2023/02/04 12:44:05;;;;;;;9.20;2.47;;;10.80;99.90;;;;;;5054988;28;20107;-50
2023/02/04 12:46:32;;;;;;;6.35;2.28;;;10.80;99.90;;;;;;5054831;28;20411;-50
2023/02/04 12:48:59;;;;;;;7.75;2.63;;;10.80;99.90;;;;;;5053789;28;20049;-51